createdAt,value
2022-08-27T00:02:10.725Z,15.34
2022-08-27T00:04:41.397Z,15.60
2022-08-27T00:07:10.853Z,15.56
2022-08-27T00:09:40.152Z,15.23
2022-08-27T00:12:09.637Z,15.43
2022-08-27T00:14:39.673Z,15.39
2022-08-27T00:17:08.337Z,15.17
2022-08-27T00:19:37.838Z,15.19
2022-08-27T00:22:08.348Z,15.37
2022-08-27T00:24:42.042Z,14.95
2022-08-27T00:27:18.441Z,15.49
2022-08-27T00:29:48.238Z,15.25
2022-08-27T00:32:17.198Z,15.34
2022-08-27T00:34:45.581Z,15.64
2022-08-27T00:37:14.329Z,15.56
2022-08-27T00:39:42.450Z,15.54
2022-08-27T00:42:11.833Z,15.43
2022-08-27T00:44:40.858Z,15.39
2022-08-27T00:47:17.453Z,15.18
2022-08-27T00:49:56.397Z,15.04
2022-08-27T00:52:57.651Z,14.68
2022-08-27T00:55:35.926Z,14.51
2022-08-27T00:58:17.769Z,14.66
2022-08-27T01:00:46.751Z,14.63
2022-08-27T01:03:16.012Z,14.62
2022-08-27T01:05:45.921Z,14.35
2022-08-27T01:08:21.527Z,14.45
2022-08-27T01:10:51.518Z,14.61
2022-08-27T01:13:59.276Z,14.75
2022-08-27T01:16:21.730Z,14.63
2022-08-27T01:18:51.876Z,14.53
2022-08-27T01:21:19.852Z,14.64
2022-08-27T01:24:21.865Z,14.63
2022-08-27T01:26:50.477Z,14.51
2022-08-27T01:29:19.188Z,14.69
2022-08-27T01:31:48.355Z,14.82
2022-08-27T01:34:16.688Z,14.87
2022-08-27T01:36:44.904Z,14.61
2022-08-27T01:39:13.039Z,14.85
2022-08-27T01:41:41.378Z,14.84
2022-08-27T01:44:09.538Z,14.81
2022-08-27T01:46:37.934Z,14.82
2022-08-27T01:49:06.621Z,14.86
2022-08-27T01:51:35.246Z,14.81
2022-08-27T01:54:03.710Z,14.33
2022-08-27T01:56:31.696Z,14.48
2022-08-27T01:59:00.176Z,14.74
2022-08-27T02:01:28.792Z,14.63
2022-08-27T02:03:57.093Z,14.50
2022-08-27T02:06:25.353Z,14.48
2022-08-27T02:08:53.529Z,14.35
2022-08-27T02:11:21.916Z,14.26
2022-08-27T02:13:50.092Z,13.85
2022-08-27T02:16:18.758Z,14.26
2022-08-27T02:18:47.453Z,14.21
2022-08-27T02:21:15.801Z,14.22
2022-08-27T02:23:45.811Z,14.18
2022-08-27T02:26:14.200Z,14.10
2022-08-27T02:28:42.503Z,14.14
2022-08-27T02:31:10.886Z,14.05
2022-08-27T02:33:38.992Z,14.14
2022-08-27T02:36:07.595Z,14.11
2022-08-27T02:38:35.985Z,13.77
2022-08-27T02:41:04.124Z,14.10
2022-08-27T02:43:32.355Z,14.08
2022-08-27T02:46:03.828Z,14.02
2022-08-27T02:48:32.056Z,14.07
2022-08-27T02:51:00.168Z,13.96
2022-08-27T02:53:28.754Z,13.84
2022-08-27T02:55:56.879Z,13.76
2022-08-27T02:58:25.153Z,13.98
2022-08-27T03:00:53.706Z,13.95
2022-08-27T03:03:21.815Z,14.07
2022-08-27T03:05:50.122Z,13.69
2022-08-27T03:08:18.292Z,13.93
2022-08-27T03:10:46.431Z,13.85
2022-08-27T03:13:14.758Z,13.76
2022-08-27T03:15:43.039Z,13.53
2022-08-27T03:18:20.236Z,13.28
2022-08-27T03:20:56.015Z,13.63
2022-08-27T03:23:28.252Z,13.63
2022-08-27T03:26:00.617Z,13.59
2022-08-27T03:28:34.209Z,13.33
2022-08-27T03:31:08.022Z,13.62
2022-08-27T03:33:40.600Z,13.53
2022-08-27T03:36:09.704Z,13.57
2022-08-27T03:38:38.642Z,13.49
2022-08-27T03:41:06.933Z,13.45
2022-08-27T03:43:36.067Z,13.30
2022-08-27T03:46:04.213Z,13.51
2022-08-27T03:48:32.949Z,13.52
2022-08-27T03:51:11.640Z,13.55
2022-08-27T03:53:42.098Z,13.30
2022-08-27T03:56:10.966Z,13.26
2022-08-27T03:58:40.219Z,13.55
2022-08-27T04:01:09.318Z,13.52
2022-08-27T04:03:38.324Z,13.54
2022-08-27T04:06:07.412Z,13.51
2022-08-27T04:08:36.558Z,13.53
2022-08-27T04:11:08.360Z,13.63
2022-08-27T04:13:37.672Z,13.71
2022-08-27T04:16:07.211Z,13.50
2022-08-27T04:18:35.651Z,13.76
2022-08-27T04:21:13.285Z,13.88
2022-08-27T04:23:42.725Z,13.66
2022-08-27T04:26:15.899Z,13.78
2022-08-27T04:28:48.661Z,14.22
2022-08-27T04:31:17.409Z,14.00
2022-08-27T04:33:51.243Z,14.28
2022-08-27T04:36:20.864Z,14.47
2022-08-27T04:38:50.115Z,14.47
2022-08-27T04:41:26.737Z,14.52
2022-08-27T04:43:57.960Z,14.55
2022-08-27T04:46:31.354Z,14.59
2022-08-27T04:49:02.836Z,15.07
2022-08-27T04:51:35.884Z,15.24
2022-08-27T04:54:06.702Z,15.45
2022-08-27T04:56:36.956Z,15.78
2022-08-27T04:59:09.324Z,15.74
2022-08-27T05:01:40.613Z,15.78
2022-08-27T05:04:11.182Z,15.89
2022-08-27T05:06:39.935Z,15.92
2022-08-27T05:09:08.834Z,15.86
2022-08-27T05:11:37.610Z,16.03
2022-08-27T05:14:10.935Z,16.28
2022-08-27T05:16:40.810Z,16.41
2022-08-27T05:19:14.973Z,16.57
2022-08-27T05:21:50.804Z,16.62
2022-08-27T05:24:19.860Z,16.83
2022-08-27T05:26:48.434Z,17.30
2022-08-27T05:29:17.094Z,17.21
2022-08-27T05:31:48.217Z,17.43
2022-08-27T05:34:25.546Z,17.73
2022-08-27T05:36:55.193Z,17.64
2022-08-27T05:39:23.329Z,17.64
2022-08-27T05:41:53.066Z,18.45
2022-08-27T05:47:10.264Z,18.90
2022-08-27T05:49:38.814Z,19.57
2022-08-27T05:52:11.964Z,19.78
2022-08-27T05:54:40.786Z,19.79
2022-08-27T05:57:09.508Z,20.04
2022-08-27T05:59:56.601Z,19.69
2022-08-27T06:02:24.951Z,20.06
2022-08-27T06:04:54.018Z,20.18
2022-08-27T06:07:22.320Z,20.64
2022-08-27T06:09:50.433Z,21.12
2022-08-27T06:12:18.596Z,21.26
2022-08-27T06:14:46.955Z,21.87
2022-08-27T06:17:15.009Z,22.16
2022-08-27T06:19:43.954Z,21.85
2022-08-27T06:22:12.553Z,22.52
2022-08-27T06:24:43.536Z,22.77
2022-08-27T06:27:17.248Z,23.16
2022-08-27T06:29:46.351Z,23.38
2022-08-27T06:32:15.342Z,22.76
2022-08-27T06:34:43.748Z,22.98
2022-08-27T06:37:11.975Z,23.13
2022-08-27T06:39:40.683Z,23.35
2022-08-27T06:42:13.272Z,23.92
2022-08-27T06:44:42.344Z,24.10
2022-08-27T06:47:11.325Z,24.45
2022-08-27T06:49:41.662Z,24.61
2022-08-27T06:52:15.898Z,24.66
2022-08-27T06:54:46.091Z,24.79
2022-08-27T06:57:14.388Z,25.13
2022-08-27T06:59:43.404Z,25.24
2022-08-27T07:02:11.826Z,25.43
2022-08-27T07:04:40.479Z,25.70
2022-08-27T07:07:13.150Z,25.84
2022-08-27T07:09:41.571Z,26.31
2022-08-27T07:12:09.756Z,26.36
2022-08-27T07:14:38.478Z,26.28
2022-08-27T07:17:11.341Z,26.29
2022-08-27T07:19:45.813Z,26.38
2022-08-27T07:22:14.123Z,27.11
2022-08-27T07:24:44.017Z,27.49
2022-08-27T07:27:12.585Z,27.71
2022-08-27T07:29:40.846Z,27.65
2022-08-27T07:32:09.358Z,27.91
2022-08-27T07:34:37.689Z,28.32
2022-08-27T07:37:05.881Z,28.40
2022-08-27T07:39:34.290Z,28.39
2022-08-27T07:42:21.191Z,28.71
2022-08-27T07:44:50.224Z,28.66
2022-08-27T07:47:18.810Z,29.29
2022-08-27T07:49:47.025Z,29.17
2022-08-27T07:52:17.775Z,29.56
2022-08-27T07:54:45.913Z,29.91
2022-08-27T07:57:14.100Z,29.87
2022-08-27T07:59:42.336Z,29.91
2022-08-27T08:02:10.512Z,29.88
2022-08-27T08:04:38.840Z,30.27
2022-08-27T08:07:06.930Z,30.21
2022-08-27T08:09:35.093Z,30.25
2022-08-27T08:12:05.349Z,30.23
2022-08-27T08:14:33.661Z,30.46
2022-08-27T08:17:10.066Z,30.57
2022-08-27T08:19:40.653Z,30.21
2022-08-27T08:22:09.294Z,30.84
2022-08-27T08:24:37.408Z,30.34
2022-08-27T08:27:07.345Z,31.13
2022-08-27T08:29:36.637Z,31.47
2022-08-27T08:32:07.656Z,30.88
2022-08-27T08:34:36.988Z,31.35
2022-08-27T08:37:07.377Z,31.80
2022-08-27T08:39:38.570Z,31.17
2022-08-27T08:42:18.464Z,31.55
2022-08-27T08:44:53.926Z,32.15
2022-08-27T08:47:49.032Z,31.57
2022-08-27T08:51:02.237Z,31.99
2022-08-27T08:53:55.088Z,31.81
2022-08-27T08:57:00.081Z,31.47
2022-08-27T08:59:51.035Z,30.33
2022-08-27T09:02:19.582Z,30.27
2022-08-27T09:04:47.858Z,30.58
2022-08-27T09:07:38.986Z,30.87
2022-08-27T09:10:20.843Z,30.09
2022-08-27T09:12:49.246Z,30.86
2022-08-27T09:15:23.684Z,30.50
2022-08-27T09:17:52.124Z,30.59
2022-08-27T09:20:25.916Z,31.15
2022-08-27T09:23:22.162Z,30.43
2022-08-27T09:25:50.289Z,31.02
2022-08-27T09:28:49.526Z,31.31
2022-08-27T09:31:21.551Z,30.51
2022-08-27T09:33:55.994Z,30.57
2022-08-27T09:36:26.334Z,30.45
2022-08-27T09:39:02.030Z,31.14
2022-08-27T09:41:43.121Z,30.92
2022-08-27T09:44:13.249Z,30.66
2022-08-27T09:47:00.185Z,30.63
2022-08-27T09:49:29.322Z,29.93
2022-08-27T09:51:59.283Z,30.79
2022-08-27T09:54:42.851Z,30.80
2022-08-27T09:57:14.266Z,31.77
2022-08-27T09:59:55.370Z,30.88
2022-08-27T10:02:26.509Z,31.11
2022-08-27T10:05:01.247Z,30.51
2022-08-27T10:08:22.115Z,31.35
2022-08-27T10:11:01.263Z,30.77
2022-08-27T10:13:29.177Z,31.53
2022-08-27T10:16:34.873Z,32.36
2022-08-27T10:19:32.168Z,32.34
2022-08-27T10:22:08.654Z,31.85
2022-08-27T10:25:15.551Z,31.06
2022-08-27T10:27:59.318Z,31.60
2022-08-27T10:30:55.317Z,31.69
2022-08-27T10:33:38.020Z,32.58
2022-08-27T10:36:57.663Z,31.21
2022-08-27T10:39:54.706Z,32.13
2022-08-27T10:42:39.951Z,31.65
2022-08-27T10:45:31.078Z,30.92
2022-08-27T10:48:19.521Z,32.52
2022-08-27T10:51:08.861Z,32.66
2022-08-27T10:53:45.556Z,32.78
2022-08-27T10:56:45.220Z,32.65
2022-08-27T10:59:40.857Z,32.81
2022-08-27T11:02:40.399Z,32.36
2022-08-27T11:05:44.036Z,32.28
2022-08-27T11:08:22.337Z,32.63
2022-08-27T11:11:57.056Z,33.31
2022-08-27T11:14:01.276Z,33.81
2022-08-27T11:16:45.904Z,33.20
2022-08-27T11:19:26.841Z,33.82
2022-08-27T11:22:24.137Z,32.82
2022-08-27T11:25:58.347Z,33.41
2022-08-27T11:29:00.310Z,33.93
2022-08-27T11:31:53.879Z,34.52
2022-08-27T11:34:40.378Z,34.58
2022-08-27T11:37:45.849Z,33.62
2022-08-27T11:40:41.819Z,33.02
2022-08-27T11:43:16.303Z,33.49
2022-08-27T11:46:03.662Z,33.40
2022-08-27T11:48:36.933Z,33.68
2022-08-27T11:51:15.879Z,33.95
2022-08-27T11:54:27.361Z,34.58
2022-08-27T11:56:55.503Z,34.54
2022-08-27T11:59:33.261Z,34.07
2022-08-27T12:02:27.985Z,33.60
2022-08-27T12:05:26.618Z,34.11
2022-08-27T12:07:55.062Z,33.93
2022-08-27T12:11:13.132Z,34.26
2022-08-27T12:14:33.913Z,34.24
2022-08-27T12:17:17.089Z,34.37
2022-08-27T12:20:52.664Z,33.42
2022-08-27T12:24:04.986Z,34.27
2022-08-27T12:26:40.066Z,34.81
2022-08-27T12:29:46.731Z,35.43
2022-08-27T12:32:40.342Z,35.21
2022-08-27T12:35:20.277Z,35.39
2022-08-27T12:37:57.794Z,35.60
2022-08-27T12:40:38.886Z,35.54
2022-08-27T12:43:13.893Z,35.05
2022-08-27T12:45:57.317Z,35.44
2022-08-27T12:48:51.128Z,35.03
2022-08-27T12:51:31.565Z,35.92
2022-08-27T12:54:49.761Z,35.44
2022-08-27T12:57:47.778Z,35.39
2022-08-27T13:00:26.393Z,35.58
2022-08-27T13:03:22.615Z,35.71
2022-08-27T13:05:51.307Z,35.58
2022-08-27T13:08:22.841Z,35.91
2022-08-27T13:10:51.882Z,36.37
2022-08-27T13:13:25.486Z,36.50
2022-08-27T13:15:59.747Z,34.73
2022-08-27T13:18:30.520Z,35.80
2022-08-27T13:21:09.584Z,35.66
2022-08-27T13:23:44.153Z,35.43
2022-08-27T13:26:13.101Z,35.38
2022-08-27T13:28:43.842Z,35.96
2022-08-27T13:31:12.181Z,35.76
2022-08-27T13:33:43.151Z,36.10
2022-08-27T13:36:12.469Z,36.12
2022-08-27T13:38:50.137Z,36.45
2022-08-27T13:41:33.477Z,36.58
2022-08-27T13:44:34.967Z,36.17
2022-08-27T13:47:21.075Z,36.67
2022-08-27T13:49:50.614Z,35.86
2022-08-27T13:52:29.451Z,36.77
2022-08-27T13:55:08.048Z,36.12
2022-08-27T13:57:49.788Z,36.51
2022-08-27T14:00:26.870Z,36.37
2022-08-27T14:02:56.731Z,35.97
2022-08-27T14:05:24.806Z,36.06
2022-08-27T14:07:59.831Z,36.47
2022-08-27T14:10:44.880Z,36.06
2022-08-27T14:13:26.398Z,36.15
2022-08-27T14:16:00.951Z,36.06
2022-08-27T14:18:57.903Z,36.31
2022-08-27T14:21:25.819Z,35.68
2022-08-27T14:23:54.506Z,35.91
2022-08-27T14:26:23.027Z,34.80
2022-08-27T14:28:51.383Z,35.18
2022-08-27T14:31:19.860Z,35.34
2022-08-27T14:33:49.136Z,36.07
2022-08-27T14:36:17.367Z,35.35
2022-08-27T14:38:49.085Z,35.22
2022-08-27T14:41:18.899Z,35.87
2022-08-27T14:43:50.286Z,35.84
2022-08-27T14:46:25.463Z,35.76
2022-08-27T14:48:56.834Z,35.34
2022-08-27T14:51:31.597Z,35.46
2022-08-27T14:54:00.691Z,34.91
2022-08-27T14:56:28.798Z,34.57
2022-08-27T14:58:57.395Z,34.75
2022-08-27T15:01:27.702Z,35.26
2022-08-27T15:03:57.705Z,34.92
2022-08-27T15:06:27.370Z,35.27
2022-08-27T15:08:56.124Z,35.26
2022-08-27T15:11:31.678Z,35.39
2022-08-27T15:14:03.018Z,34.91
2022-08-27T15:16:40.258Z,34.41
2022-08-27T15:19:12.977Z,33.32
2022-08-27T15:21:44.497Z,33.89
2022-08-27T15:24:28.496Z,33.71
2022-08-27T15:26:58.889Z,33.04
2022-08-27T15:29:27.977Z,33.28
2022-08-27T15:31:56.278Z,33.46
2022-08-27T15:34:24.485Z,33.25
2022-08-27T15:36:53.600Z,33.27
2022-08-27T15:39:21.791Z,32.99
2022-08-27T15:42:05.938Z,32.80
2022-08-27T15:44:38.411Z,33.30
2022-08-27T15:47:07.326Z,32.92
2022-08-27T15:49:35.582Z,32.78
2022-08-27T15:52:05.381Z,32.44
2022-08-27T15:54:33.866Z,32.65
2022-08-27T15:57:02.585Z,31.91
2022-08-27T15:59:31.125Z,31.98
2022-08-27T16:02:00.659Z,32.38
2022-08-27T16:04:28.892Z,31.98
2022-08-27T16:06:57.135Z,31.82
2022-08-27T16:09:25.400Z,31.84
2022-08-27T16:11:53.625Z,31.79
2022-08-27T16:14:22.857Z,31.86
2022-08-27T16:16:51.975Z,31.37
2022-08-27T16:19:21.112Z,31.35
2022-08-27T16:21:51.214Z,31.35
2022-08-27T16:24:21.818Z,31.25
2022-08-27T16:26:50.284Z,30.87
2022-08-27T16:29:18.990Z,30.51
2022-08-27T16:31:47.415Z,30.57
2022-08-27T16:34:25.449Z,30.24
2022-08-27T16:36:54.506Z,30.26
2022-08-27T16:39:23.965Z,30.07
2022-08-27T16:41:52.198Z,29.64
2022-08-27T16:44:20.352Z,29.93
2022-08-27T16:46:48.622Z,29.88
2022-08-27T16:49:35.567Z,29.75
2022-08-27T16:52:06.426Z,29.59
2022-08-27T16:54:36.043Z,29.42
2022-08-27T16:57:04.770Z,29.27
2022-08-27T16:59:33.421Z,29.11
2022-08-27T17:02:01.683Z,28.96
2022-08-27T17:04:38.091Z,28.81
2022-08-27T17:07:11.438Z,28.50
2022-08-27T17:09:40.233Z,28.21
2022-08-27T17:12:10.728Z,27.81
2022-08-27T17:14:39.555Z,27.38
2022-08-27T17:17:09.596Z,27.24
2022-08-27T17:19:37.647Z,27.00
2022-08-27T17:22:10.354Z,26.79
2022-08-27T17:24:40.137Z,26.33
2022-08-27T17:27:08.715Z,26.36
2022-08-27T17:29:37.737Z,26.25
2022-08-27T17:32:09.173Z,26.14
2022-08-27T17:34:38.003Z,25.83
2022-08-27T17:37:07.322Z,25.80
2022-08-27T17:39:35.779Z,25.52
2022-08-27T17:42:07.280Z,25.21
2022-08-27T17:44:37.145Z,25.11
2022-08-27T17:47:08.811Z,25.16
2022-08-27T17:49:38.609Z,25.06
2022-08-27T17:52:15.510Z,24.45
2022-08-27T17:54:54.424Z,24.86
2022-08-27T17:57:29.553Z,24.77
2022-08-27T18:00:12.046Z,24.38
2022-08-27T18:02:47.689Z,24.27
2022-08-27T18:05:18.495Z,24.23
2022-08-27T18:07:48.460Z,24.31
2022-08-27T18:10:24.462Z,24.15
2022-08-27T18:12:53.835Z,24.11
2022-08-27T18:15:26.916Z,23.71
2022-08-27T18:17:57.387Z,23.77
2022-08-27T18:20:28.861Z,23.23
2022-08-27T18:22:57.787Z,23.24
2022-08-27T18:25:35.262Z,23.02
2022-08-27T18:28:17.556Z,22.46
2022-08-27T18:30:46.855Z,22.38
2022-08-27T18:33:15.416Z,22.74
2022-08-27T18:35:44.524Z,22.66
2022-08-27T18:38:15.801Z,22.57
2022-08-27T18:40:50.039Z,22.62
2022-08-27T18:43:23.539Z,22.46
2022-08-27T18:45:52.045Z,22.26
2022-08-27T18:48:22.653Z,22.13
2022-08-27T18:50:57.417Z,22.09
2022-08-27T18:53:30.684Z,21.94
2022-08-27T18:56:00.491Z,21.90
2022-08-27T18:58:32.135Z,21.74
2022-08-27T19:01:04.674Z,21.21
2022-08-27T19:03:50.760Z,21.68
2022-08-27T19:06:21.119Z,21.32
2022-08-27T19:08:52.395Z,21.28
2022-08-27T19:11:20.740Z,21.46
2022-08-27T19:13:50.741Z,21.37
2022-08-27T19:16:48.020Z,21.35
2022-08-27T19:19:18.831Z,20.97
2022-08-27T19:21:51.386Z,21.18
2022-08-27T19:24:22.255Z,20.77
2022-08-27T19:26:51.534Z,21.00
2022-08-27T19:29:20.122Z,20.94
2022-08-27T19:31:48.504Z,20.83
2022-08-27T19:34:16.967Z,20.29
2022-08-27T19:36:45.241Z,20.64
2022-08-27T19:39:14.002Z,20.66
2022-08-27T19:41:42.145Z,20.47
2022-08-27T19:44:10.480Z,20.49
2022-08-27T19:46:38.821Z,20.41
2022-08-27T19:49:07.027Z,20.39
2022-08-27T19:51:35.388Z,20.24
2022-08-27T19:54:04.104Z,20.25
2022-08-27T19:56:33.792Z,20.02
2022-08-27T19:59:16.280Z,20.02
2022-08-27T20:01:50.082Z,19.98
2022-08-27T20:04:18.919Z,19.89
2022-08-27T20:06:49.997Z,19.76
2022-08-27T20:09:21.396Z,19.40
2022-08-27T20:11:50.793Z,19.57
2022-08-27T20:14:19.465Z,19.45
2022-08-27T20:16:47.753Z,19.23
2022-08-27T20:19:17.717Z,19.49
2022-08-27T20:21:46.196Z,19.53
2022-08-27T20:24:14.606Z,19.43
2022-08-27T20:26:43.562Z,19.29
2022-08-27T20:29:15.069Z,19.23
2022-08-27T20:32:01.568Z,18.96
2022-08-27T20:34:30.073Z,18.57
2022-08-27T20:36:59.292Z,18.53
2022-08-27T20:39:27.685Z,18.53
2022-08-27T20:41:55.934Z,18.70
2022-08-27T20:44:25.342Z,18.57
2022-08-27T20:46:59.963Z,18.58
2022-08-27T20:49:29.216Z,18.64
2022-08-27T20:52:02.848Z,18.64
2022-08-27T20:54:34.215Z,18.69
2022-08-27T20:57:04.355Z,18.66
2022-08-27T20:59:52.125Z,18.08
2022-08-27T21:02:29.155Z,18.42
2022-08-27T21:04:58.335Z,18.07
2022-08-27T21:07:27.698Z,17.99
2022-08-27T21:09:57.554Z,18.03
2022-08-27T21:12:28.536Z,17.98
2022-08-27T21:14:57.974Z,18.12
2022-08-27T21:17:28.938Z,18.00
2022-08-27T21:19:57.582Z,17.87
2022-08-27T21:22:26.932Z,17.87
2022-08-27T21:24:56.229Z,17.83
2022-08-27T21:27:24.471Z,17.89
2022-08-27T21:29:54.369Z,17.78
2022-08-27T21:32:22.830Z,17.70
2022-08-27T21:34:51.158Z,17.78
2022-08-27T21:37:19.431Z,17.76
2022-08-27T21:39:48.537Z,17.76
2022-08-27T21:42:16.920Z,17.64
2022-08-27T21:44:45.103Z,17.55
2022-08-27T21:47:13.404Z,17.20
2022-08-27T21:49:42.218Z,17.34
2022-08-27T21:52:10.689Z,17.22
2022-08-27T21:54:42.430Z,17.33
2022-08-27T21:57:13.971Z,17.25
2022-08-27T21:59:47.125Z,17.31
2022-08-27T22:02:38.870Z,17.21
2022-08-27T22:05:07.670Z,16.98
2022-08-27T22:07:36.445Z,16.84
2022-08-27T22:10:06.806Z,16.74
2022-08-27T22:12:37.125Z,16.81
2022-08-27T22:15:09.010Z,16.74
2022-08-27T22:17:37.664Z,16.74
2022-08-27T22:20:10.129Z,16.68
2022-08-27T22:22:38.912Z,16.41
2022-08-27T22:25:08.953Z,16.86
2022-08-27T22:27:37.283Z,16.91
2022-08-27T22:30:11.024Z,16.87
2022-08-27T22:32:40.956Z,16.88
2022-08-27T22:35:12.406Z,16.65
2022-08-27T22:37:40.907Z,16.67
2022-08-27T22:40:20.722Z,16.64
2022-08-27T22:42:50.215Z,16.71
2022-08-27T22:45:19.233Z,16.16
2022-08-27T22:47:48.724Z,16.55
2022-08-27T22:50:17.633Z,16.49
2022-08-27T22:52:47.871Z,16.49
2022-08-27T22:55:19.731Z,16.28
2022-08-27T22:57:53.509Z,16.14
2022-08-27T23:00:26.919Z,16.39
2022-08-27T23:02:55.656Z,16.33
2022-08-27T23:05:25.257Z,16.28
2022-08-27T23:07:55.318Z,15.90
2022-08-27T23:10:24.622Z,16.19
2022-08-27T23:12:53.781Z,16.15
2022-08-27T23:15:26.569Z,15.95
2022-08-27T23:17:55.887Z,16.12
2022-08-27T23:20:26.071Z,15.97
2022-08-27T23:22:55.595Z,16.04
2022-08-27T23:25:45.153Z,15.88
2022-08-27T23:28:15.329Z,15.97
2022-08-27T23:30:45.474Z,15.94
2022-08-27T23:33:15.100Z,15.72
2022-08-27T23:35:48.305Z,15.64
2022-08-27T23:38:21.794Z,15.59
2022-08-27T23:40:50.817Z,15.54
2022-08-27T23:43:20.406Z,15.31
2022-08-27T23:45:50.712Z,15.61
2022-08-27T23:48:20.512Z,14.85
2022-08-27T23:50:48.856Z,14.92
2022-08-27T23:53:17.605Z,15.21
2022-08-27T23:55:45.801Z,15.49
2022-08-27T23:58:14.067Z,15.16
